createdAt,value
2023-01-11T00:00:20.244Z,85.95
2023-01-11T00:01:21.767Z,86.33
2023-01-11T00:02:23.365Z,86.37
2023-01-11T00:03:24.863Z,86.87
2023-01-11T00:04:30.318Z,85.99
2023-01-11T00:05:36.594Z,86.05
2023-01-11T00:06:38.050Z,86.71
2023-01-11T00:07:40.974Z,86.31
2023-01-11T00:08:42.489Z,86.83
2023-01-11T00:09:44.688Z,86.02
2023-01-11T00:10:46.101Z,86.76
2023-01-11T00:11:47.636Z,86.31
2023-01-11T00:12:49.055Z,86.95
2023-01-11T00:13:50.540Z,86.40
2023-01-11T00:14:51.953Z,86.45
2023-01-11T00:15:53.431Z,86.92
2023-01-11T00:16:54.835Z,86.53
2023-01-11T00:17:57.628Z,85.54
2023-01-11T00:18:59.065Z,86.17
2023-01-11T00:20:00.505Z,86.98
2023-01-11T00:21:05.569Z,86.06
2023-01-11T00:22:07.000Z,86.96
2023-01-11T00:23:08.811Z,85.30
2023-01-11T00:24:10.235Z,86.21
2023-01-11T00:25:11.662Z,86.00
2023-01-11T00:26:13.664Z,86.15
2023-01-11T00:27:15.100Z,86.18
2023-01-11T00:28:16.747Z,85.80
2023-01-11T00:29:18.347Z,86.62
2023-01-11T00:30:19.956Z,86.18
2023-01-11T00:31:21.458Z,86.66
2023-01-11T00:32:22.900Z,86.78
2023-01-11T00:33:24.340Z,85.69
2023-01-11T00:34:25.895Z,86.33
2023-01-11T00:35:28.036Z,87.09
2023-01-11T00:36:29.345Z,87.99
2023-01-11T00:37:30.753Z,87.61
2023-01-11T00:38:44.089Z,86.77
2023-01-11T00:39:45.483Z,87.52
2023-01-11T00:40:46.918Z,86.05
2023-01-11T00:42:07.091Z,87.00
2023-01-11T00:43:26.953Z,87.34
2023-01-11T00:44:46.822Z,87.10
2023-01-11T00:46:06.623Z,87.26
2023-01-11T00:47:44.324Z,86.68
2023-01-11T00:48:45.717Z,87.03
2023-01-11T00:49:47.149Z,87.34
2023-01-11T00:50:48.575Z,87.18
2023-01-11T00:51:50.115Z,87.14
2023-01-11T00:52:51.619Z,86.76
2023-01-11T00:53:53.063Z,87.66
2023-01-11T00:54:54.568Z,87.00
2023-01-11T00:55:55.979Z,86.42
2023-01-11T00:56:57.435Z,87.34
2023-01-11T00:58:00.034Z,86.75
2023-01-11T00:59:02.006Z,87.19
2023-01-11T01:00:05.111Z,86.58
2023-01-11T01:01:07.780Z,87.08
2023-01-11T01:02:10.988Z,87.56
2023-01-11T01:03:12.514Z,88.24
2023-01-11T01:04:13.981Z,87.47
2023-01-11T01:05:15.936Z,88.45
2023-01-11T01:06:17.387Z,88.10
2023-01-11T01:07:18.814Z,86.85
2023-01-11T01:08:20.222Z,87.39
2023-01-11T01:09:21.824Z,88.06
2023-01-11T01:10:23.296Z,88.19
2023-01-11T01:11:24.748Z,87.65
2023-01-11T01:12:44.833Z,87.81
2023-01-11T01:14:04.802Z,87.96
2023-01-11T01:15:06.777Z,87.73
2023-01-11T01:16:08.315Z,87.29
2023-01-11T01:17:09.866Z,87.67
2023-01-11T01:18:11.503Z,88.37
2023-01-11T01:19:13.868Z,88.12
2023-01-11T01:20:15.931Z,88.27
2023-01-11T01:21:17.267Z,88.12
2023-01-11T01:22:18.712Z,88.44
2023-01-11T01:23:20.120Z,87.97
2023-01-11T01:24:22.263Z,88.11
2023-01-11T01:25:23.663Z,88.57
2023-01-11T01:26:25.389Z,88.93
2023-01-11T01:27:26.843Z,88.43
2023-01-11T01:28:28.232Z,88.62
2023-01-11T01:29:29.661Z,88.41
2023-01-11T01:30:31.096Z,88.02
2023-01-11T01:31:32.695Z,88.62
2023-01-11T01:32:34.271Z,87.63
2023-01-11T01:33:36.413Z,88.28
2023-01-11T01:34:37.784Z,88.52
2023-01-11T01:35:39.290Z,88.58
2023-01-11T01:36:40.781Z,88.57
2023-01-11T01:37:44.037Z,88.95
2023-01-11T01:38:46.731Z,88.79
2023-01-11T01:39:48.185Z,89.09
2023-01-11T01:40:49.665Z,88.49
2023-01-11T01:41:51.085Z,88.84
2023-01-11T01:42:54.250Z,88.95
2023-01-11T01:44:00.727Z,88.58
2023-01-11T01:45:23.895Z,88.13
2023-01-11T01:46:31.512Z,88.84
2023-01-11T01:47:36.321Z,87.67
2023-01-11T01:48:40.014Z,88.50
2023-01-11T01:49:44.353Z,88.17
2023-01-11T01:50:56.250Z,88.51
2023-01-11T01:51:58.263Z,87.35
2023-01-11T01:53:02.655Z,87.62
2023-01-11T01:54:08.731Z,88.05
2023-01-11T01:55:14.744Z,86.70
2023-01-11T01:56:24.123Z,87.81
2023-01-11T01:57:30.127Z,86.18
2023-01-11T01:58:38.315Z,87.01
2023-01-11T01:59:41.487Z,86.58
2023-01-11T02:00:44.809Z,86.43
2023-01-11T02:01:47.703Z,85.40
2023-01-11T02:02:50.344Z,85.91
2023-01-11T02:03:52.934Z,85.15
2023-01-11T02:04:57.368Z,85.40
2023-01-11T02:05:58.893Z,85.94
2023-01-11T02:07:07.699Z,85.63
2023-01-11T02:08:17.539Z,85.25
2023-01-11T02:09:31.409Z,85.84
2023-01-11T02:10:32.954Z,85.59
2023-01-11T02:11:34.821Z,85.45
2023-01-11T02:12:44.694Z,85.93
2023-01-11T02:13:46.345Z,84.50
2023-01-11T02:14:49.166Z,84.54
2023-01-11T02:16:07.659Z,85.71
2023-01-11T02:17:10.334Z,84.17
2023-01-11T02:18:13.902Z,83.77
2023-01-11T02:19:40.770Z,84.89
2023-01-11T02:20:48.251Z,83.72
2023-01-11T02:22:02.734Z,83.56
2023-01-11T02:23:16.323Z,83.29
2023-01-11T02:24:48.902Z,82.98
2023-01-11T02:25:50.316Z,82.85
2023-01-11T02:27:06.584Z,81.97
2023-01-11T02:28:13.796Z,83.45
2023-01-11T02:29:15.386Z,81.81
2023-01-11T02:30:30.763Z,82.00
2023-01-11T02:31:53.069Z,82.67
2023-01-11T02:33:15.524Z,81.36
2023-01-11T02:34:50.426Z,81.96
2023-01-11T02:36:19.959Z,82.28
2023-01-11T02:37:50.590Z,83.01
2023-01-11T02:39:15.328Z,82.35
2023-01-11T02:40:29.724Z,82.61
2023-01-11T02:42:30.720Z,81.21
2023-01-11T02:43:56.055Z,82.33
2023-01-11T02:45:10.994Z,82.22
2023-01-11T02:46:25.477Z,79.17
2023-01-11T02:48:22.776Z,81.58
2023-01-11T02:49:56.900Z,81.15
2023-01-11T02:51:12.810Z,81.29
2023-01-11T02:52:21.278Z,80.11
2023-01-11T02:53:28.755Z,79.92
2023-01-11T02:54:33.666Z,80.52
2023-01-11T02:55:42.508Z,78.72
2023-01-11T02:56:47.938Z,80.21
2023-01-11T02:57:53.008Z,81.28
2023-01-11T02:58:57.842Z,81.18
2023-01-11T03:00:00.715Z,79.27
2023-01-11T03:01:03.196Z,80.79
2023-01-11T03:02:04.726Z,82.11
2023-01-11T03:03:08.931Z,80.66
2023-01-11T03:04:23.193Z,78.99
2023-01-11T03:05:24.965Z,80.14
2023-01-11T03:06:31.873Z,79.95
2023-01-11T03:07:40.885Z,80.25
2023-01-11T03:09:06.842Z,81.79
2023-01-11T03:10:08.424Z,79.94
2023-01-11T03:11:43.020Z,80.51
2023-01-11T03:13:04.606Z,80.73
2023-01-11T03:14:41.805Z,81.00
2023-01-11T03:15:55.536Z,80.16
2023-01-11T03:17:12.353Z,80.68
2023-01-11T03:18:33.871Z,80.75
2023-01-11T03:19:51.344Z,81.28
2023-01-11T03:21:11.017Z,82.25
2023-01-11T03:22:17.838Z,81.67
2023-01-11T03:23:30.797Z,80.07
2023-01-11T03:24:59.664Z,80.73
2023-01-11T03:26:30.421Z,80.43
2023-01-11T03:27:40.793Z,81.04
2023-01-11T03:28:57.818Z,79.17
2023-01-11T03:30:31.335Z,79.41
2023-01-11T03:31:40.989Z,78.79
2023-01-11T03:33:05.140Z,78.47
2023-01-11T03:34:31.580Z,79.88
2023-01-11T03:35:58.545Z,79.40
2023-01-11T03:37:08.642Z,79.19
2023-01-11T03:38:22.993Z,79.82
2023-01-11T03:39:43.770Z,79.16
2023-01-11T03:40:56.024Z,79.36
2023-01-11T03:42:01.451Z,80.32
2023-01-11T03:43:12.865Z,77.86
2023-01-11T03:44:17.332Z,79.72
2023-01-11T03:45:18.785Z,80.15
2023-01-11T03:46:27.363Z,78.24
2023-01-11T03:47:31.132Z,77.60
2023-01-11T03:48:37.967Z,79.54
2023-01-11T03:50:10.946Z,80.60
2023-01-11T03:51:17.500Z,80.21
2023-01-11T03:52:25.668Z,78.14
2023-01-11T03:53:31.516Z,79.13
2023-01-11T03:54:33.802Z,79.33
2023-01-11T03:55:40.700Z,78.78
2023-01-11T03:57:11.661Z,77.07
2023-01-11T03:58:13.215Z,78.24
2023-01-11T03:59:14.689Z,78.70
2023-01-11T04:00:18.087Z,79.54
2023-01-11T04:01:19.611Z,79.30
2023-01-11T04:02:35.826Z,78.50
2023-01-11T04:03:37.260Z,77.88
2023-01-11T04:04:38.781Z,78.56
2023-01-11T04:05:43.766Z,79.10
2023-01-11T04:06:45.268Z,78.12
2023-01-11T04:07:46.799Z,78.18
2023-01-11T04:08:48.296Z,78.21
2023-01-11T04:09:49.818Z,78.73
2023-01-11T04:10:51.669Z,78.34
2023-01-11T04:11:53.075Z,79.87
2023-01-11T04:12:54.534Z,80.08
2023-01-11T04:13:56.081Z,78.60
2023-01-11T04:14:57.634Z,79.17
2023-01-11T04:15:59.106Z,79.18
2023-01-11T04:17:00.570Z,78.49
2023-01-11T04:18:05.828Z,79.42
2023-01-11T04:19:07.280Z,78.29
2023-01-11T04:20:10.246Z,80.58
2023-01-11T04:21:11.709Z,79.05
2023-01-11T04:22:13.374Z,79.90
2023-01-11T04:23:15.259Z,79.75
2023-01-11T04:24:18.407Z,78.66
2023-01-11T04:25:19.830Z,79.39
2023-01-11T04:26:21.276Z,79.46
2023-01-11T04:27:22.812Z,79.14
2023-01-11T04:28:24.273Z,80.18
2023-01-11T04:29:25.794Z,81.46
2023-01-11T04:30:27.470Z,79.09
2023-01-11T04:31:28.972Z,80.37
2023-01-11T04:32:30.499Z,78.78
2023-01-11T04:33:31.946Z,78.81
2023-01-11T04:34:33.478Z,81.16
2023-01-11T04:35:34.932Z,80.42
2023-01-11T04:36:36.395Z,79.98
2023-01-11T04:37:37.881Z,79.48
2023-01-11T04:38:39.327Z,80.53
2023-01-11T04:39:40.758Z,78.82
2023-01-11T04:40:42.187Z,79.09
2023-01-11T04:42:02.048Z,81.17
2023-01-11T04:43:03.502Z,79.05
2023-01-11T04:44:04.904Z,80.47
2023-01-11T04:45:06.718Z,78.33
2023-01-11T04:46:10.784Z,79.58
2023-01-11T04:47:12.196Z,78.95
2023-01-11T04:48:13.597Z,81.00
2023-01-11T04:49:15.688Z,80.11
2023-01-11T04:50:17.201Z,80.07
2023-01-11T04:51:18.893Z,80.15
2023-01-11T04:52:21.107Z,80.65
2023-01-11T04:53:22.546Z,79.91
2023-01-11T04:54:23.981Z,80.27
2023-01-11T04:55:25.467Z,80.42
2023-01-11T04:56:26.975Z,80.73
2023-01-11T04:57:28.439Z,81.54
2023-01-11T04:58:31.085Z,81.09
2023-01-11T04:59:32.590Z,80.82
2023-01-11T05:00:34.033Z,79.51
2023-01-11T05:01:35.457Z,79.48
2023-01-11T05:02:37.939Z,79.84
2023-01-11T05:03:39.391Z,81.21
2023-01-11T05:04:41.099Z,82.03
2023-01-11T05:05:42.504Z,80.62
2023-01-11T05:06:43.979Z,80.06
2023-01-11T05:07:45.420Z,80.21
2023-01-11T05:08:47.946Z,81.00
2023-01-11T05:09:49.326Z,81.10
2023-01-11T05:10:54.723Z,80.40
2023-01-11T05:11:56.194Z,80.34
2023-01-11T05:12:57.629Z,80.06
2023-01-11T05:13:59.910Z,79.86
2023-01-11T05:15:01.366Z,81.15
2023-01-11T05:16:02.770Z,80.64
2023-01-11T05:17:04.200Z,80.53
2023-01-11T05:18:05.884Z,79.38
2023-01-11T05:19:07.502Z,80.34
2023-01-11T05:20:09.897Z,80.24
2023-01-11T05:21:13.524Z,81.64
2023-01-11T05:22:15.019Z,79.92
2023-01-11T05:23:16.501Z,80.59
2023-01-11T05:24:18.046Z,80.49
2023-01-11T05:25:19.451Z,80.57
2023-01-11T05:26:23.224Z,80.32
2023-01-11T05:27:24.652Z,80.76
2023-01-11T05:28:26.094Z,81.93
2023-01-11T05:29:28.501Z,81.82
2023-01-11T05:30:29.913Z,81.49
2023-01-11T05:31:32.626Z,81.23
2023-01-11T05:32:34.073Z,81.98
2023-01-11T05:33:35.629Z,80.29
2023-01-11T05:34:37.046Z,81.02
2023-01-11T05:35:38.484Z,80.58
2023-01-11T05:36:41.051Z,79.69
2023-01-11T05:37:42.508Z,81.16
2023-01-11T05:38:46.818Z,81.70
2023-01-11T05:39:49.422Z,82.37
2023-01-11T05:40:58.377Z,80.66
2023-01-11T05:42:00.009Z,81.80
2023-01-11T05:43:01.516Z,81.49
2023-01-11T05:44:22.125Z,81.74
2023-01-11T05:45:29.336Z,83.33
2023-01-11T05:46:32.555Z,82.23
2023-01-11T05:47:33.948Z,82.43
2023-01-11T05:48:35.384Z,84.01
2023-01-11T05:49:36.804Z,81.99
2023-01-11T05:50:38.227Z,82.92
2023-01-11T05:51:40.283Z,82.12
2023-01-11T05:52:41.596Z,82.63
2023-01-11T05:53:43.064Z,83.00
2023-01-11T05:54:44.515Z,84.84
2023-01-11T05:55:57.035Z,82.93
2023-01-11T05:56:58.561Z,83.32
2023-01-11T05:57:59.979Z,83.94
2023-01-11T05:59:03.784Z,83.80
2023-01-11T06:00:05.754Z,83.16
2023-01-11T06:01:07.334Z,83.48
2023-01-11T06:02:08.860Z,83.14
2023-01-11T06:03:10.400Z,83.03
2023-01-11T06:04:11.946Z,82.53
2023-01-11T06:05:13.484Z,82.59
2023-01-11T06:06:16.109Z,82.70
2023-01-11T06:07:17.545Z,82.77
2023-01-11T06:08:19.142Z,83.67
2023-01-11T06:09:20.552Z,83.59
2023-01-11T06:10:22.000Z,83.82
2023-01-11T06:11:23.476Z,82.42
2023-01-11T06:12:24.928Z,82.68
2023-01-11T06:13:26.915Z,83.93
2023-01-11T06:14:28.328Z,82.82
2023-01-11T06:15:29.759Z,83.37
2023-01-11T06:16:31.229Z,83.94
2023-01-11T06:17:32.734Z,83.57
2023-01-11T06:18:39.816Z,82.95
2023-01-11T06:19:41.245Z,83.47
2023-01-11T06:20:42.763Z,84.59
2023-01-11T06:21:44.251Z,82.85
2023-01-11T06:22:45.682Z,83.05
2023-01-11T06:23:50.713Z,83.25
2023-01-11T06:24:52.312Z,83.48
2023-01-11T06:25:53.799Z,82.92
2023-01-11T06:26:55.354Z,83.49
2023-01-11T06:27:57.477Z,84.18
2023-01-11T06:28:58.763Z,83.22
2023-01-11T06:30:00.194Z,82.32
2023-01-11T06:31:02.391Z,82.88
2023-01-11T06:32:03.973Z,83.79
2023-01-11T06:33:06.116Z,82.59
2023-01-11T06:34:07.564Z,82.85
2023-01-11T06:35:09.136Z,82.12
2023-01-11T06:36:11.919Z,82.39
2023-01-11T06:37:13.298Z,82.00
2023-01-11T06:38:16.746Z,82.85
2023-01-11T06:39:19.154Z,82.22
2023-01-11T06:40:20.741Z,82.61
2023-01-11T06:41:22.193Z,82.98
2023-01-11T06:42:24.132Z,82.80
2023-01-11T06:43:26.396Z,82.09
2023-01-11T06:44:27.856Z,82.69
2023-01-11T06:45:30.739Z,82.78
2023-01-11T06:46:32.261Z,82.76
2023-01-11T06:47:33.686Z,83.17
2023-01-11T06:48:36.031Z,82.65
2023-01-11T06:49:37.445Z,83.93
2023-01-11T06:50:38.845Z,82.82
2023-01-11T06:51:40.294Z,83.37
2023-01-11T06:52:41.771Z,82.91
2023-01-11T06:53:44.474Z,82.80
2023-01-11T06:54:45.944Z,82.37
2023-01-11T06:55:55.008Z,82.95
2023-01-11T06:56:56.420Z,82.82
2023-01-11T06:57:58.093Z,82.63
2023-01-11T06:58:59.525Z,83.42
2023-01-11T07:00:01.180Z,83.88
2023-01-11T07:01:02.686Z,83.36
2023-01-11T07:02:04.350Z,83.57
2023-01-11T07:03:06.703Z,82.63
2023-01-11T07:04:08.212Z,83.12
2023-01-11T07:05:10.283Z,82.87
2023-01-11T07:06:11.661Z,82.97
2023-01-11T07:07:13.070Z,82.42
2023-01-11T07:08:15.059Z,83.70
2023-01-11T07:09:16.507Z,81.61
2023-01-11T07:10:18.052Z,82.99
2023-01-11T07:11:19.592Z,82.36
2023-01-11T07:12:21.341Z,82.68
2023-01-11T07:13:23.067Z,81.86
2023-01-11T07:14:25.095Z,83.27
2023-01-11T07:15:26.572Z,82.58
2023-01-11T07:16:28.272Z,83.82
2023-01-11T07:17:29.661Z,83.47
2023-01-11T07:18:31.740Z,83.67
2023-01-11T07:19:33.125Z,82.71
2023-01-11T07:20:34.632Z,82.78
2023-01-11T07:21:36.136Z,83.36
2023-01-11T07:22:37.540Z,83.64
2023-01-11T07:23:38.945Z,83.29
2023-01-11T07:24:40.387Z,83.49
2023-01-11T07:25:41.872Z,84.03
2023-01-11T07:26:43.721Z,84.35
2023-01-11T07:27:45.261Z,84.22
2023-01-11T07:28:46.717Z,83.79
2023-01-11T07:29:48.215Z,84.14
2023-01-11T07:30:58.177Z,84.31
2023-01-11T07:32:00.735Z,84.26
2023-01-11T07:33:04.078Z,84.41
2023-01-11T07:34:05.479Z,84.07
2023-01-11T07:35:07.457Z,85.09
2023-01-11T07:36:09.058Z,84.47
2023-01-11T07:37:28.243Z,84.68
2023-01-11T07:38:30.583Z,85.37
2023-01-11T07:39:42.841Z,83.43
2023-01-11T07:40:45.154Z,83.25
2023-01-11T07:42:05.019Z,83.11
2023-01-11T07:43:14.514Z,84.25
2023-01-11T07:44:16.053Z,84.65
2023-01-11T07:45:18.078Z,83.69
2023-01-11T07:46:19.653Z,84.41
2023-01-11T07:47:21.178Z,83.68
2023-01-11T07:48:26.173Z,84.05
2023-01-11T07:49:28.106Z,84.28
2023-01-11T07:50:29.747Z,84.25
2023-01-11T07:51:31.344Z,84.27
2023-01-11T07:52:32.798Z,84.57
2023-01-11T07:53:34.215Z,84.75
2023-01-11T07:54:35.643Z,84.59
2023-01-11T07:55:38.738Z,84.36
2023-01-11T07:56:40.227Z,84.50
2023-01-11T07:57:41.809Z,85.44
2023-01-11T07:58:43.232Z,83.98
2023-01-11T07:59:44.622Z,84.64
2023-01-11T08:00:46.301Z,84.50
2023-01-11T08:01:47.779Z,83.42
2023-01-11T08:02:53.261Z,83.02
2023-01-11T08:03:54.838Z,83.88
2023-01-11T08:04:56.309Z,84.18
2023-01-11T08:05:57.746Z,83.63
2023-01-11T08:06:59.220Z,84.49
2023-01-11T08:08:00.745Z,82.50
2023-01-11T08:09:02.156Z,82.70
2023-01-11T08:10:04.942Z,82.41
2023-01-11T08:11:25.484Z,82.61
2023-01-11T08:12:45.263Z,82.33
2023-01-11T08:14:05.212Z,82.73
2023-01-11T08:15:09.147Z,83.18
2023-01-11T08:16:10.618Z,81.75
2023-01-11T08:17:15.414Z,82.70
2023-01-11T08:18:17.506Z,83.38
2023-01-11T08:19:18.884Z,83.79
2023-01-11T08:20:20.947Z,82.36
2023-01-11T08:21:22.397Z,81.97
2023-01-11T08:22:23.853Z,82.33
2023-01-11T08:23:27.036Z,82.38
2023-01-11T08:24:28.517Z,81.62
2023-01-11T08:25:30.279Z,82.02
2023-01-11T08:26:31.695Z,81.73
2023-01-11T08:27:33.251Z,82.30
2023-01-11T08:28:34.800Z,81.70
2023-01-11T08:29:36.986Z,81.84
2023-01-11T08:30:38.957Z,82.38
2023-01-11T08:31:40.576Z,82.01
2023-01-11T08:32:41.996Z,81.69
2023-01-11T08:33:43.585Z,82.48
2023-01-11T08:34:44.972Z,81.96
2023-01-11T08:35:46.361Z,82.83
2023-01-11T08:36:47.828Z,82.71
2023-01-11T08:37:49.317Z,82.56
2023-01-11T08:38:57.011Z,82.03
2023-01-11T08:39:58.483Z,82.12
2023-01-11T08:41:01.295Z,82.58
2023-01-11T08:42:03.216Z,82.00
2023-01-11T08:43:04.725Z,82.68
2023-01-11T08:44:06.449Z,82.74
2023-01-11T08:45:08.560Z,81.39
2023-01-11T08:46:10.298Z,82.29
2023-01-11T08:47:11.988Z,82.05
2023-01-11T08:48:15.938Z,81.82
2023-01-11T08:49:17.366Z,82.21
2023-01-11T08:50:19.740Z,82.36
2023-01-11T08:51:22.221Z,81.43
2023-01-11T08:52:23.707Z,80.54
2023-01-11T08:53:25.272Z,80.76
2023-01-11T08:54:26.720Z,81.85
2023-01-11T08:55:30.682Z,81.46
2023-01-11T08:56:32.158Z,82.37
2023-01-11T08:57:34.294Z,82.08
2023-01-11T08:58:36.364Z,80.96
2023-01-11T08:59:37.660Z,81.98
2023-01-11T09:00:39.068Z,82.71
2023-01-11T09:01:40.531Z,81.84
2023-01-11T09:02:42.236Z,82.06
2023-01-11T09:03:43.760Z,82.32
2023-01-11T09:04:45.469Z,82.19
2023-01-11T09:05:46.863Z,82.54
2023-01-11T09:06:48.287Z,82.55
2023-01-11T09:07:49.695Z,81.24
2023-01-11T09:08:51.275Z,81.37
2023-01-11T09:09:52.671Z,81.25
2023-01-11T09:10:56.234Z,81.68
2023-01-11T09:12:00.200Z,81.99
2023-01-11T09:13:01.796Z,81.91
2023-01-11T09:14:03.733Z,82.72
2023-01-11T09:15:05.882Z,82.31
2023-01-11T09:16:07.883Z,81.15
2023-01-11T09:17:09.351Z,81.45
2023-01-11T09:18:10.740Z,80.87
2023-01-11T09:19:12.259Z,82.34
2023-01-11T09:20:14.443Z,82.01
2023-01-11T09:21:16.351Z,81.74
2023-01-11T09:22:18.710Z,80.55
2023-01-11T09:23:20.214Z,81.70
2023-01-11T09:24:21.645Z,80.55
2023-01-11T09:25:23.217Z,81.63
2023-01-11T09:26:24.618Z,81.10
2023-01-11T09:27:26.452Z,81.71
2023-01-11T09:28:27.917Z,82.02
2023-01-11T09:29:29.473Z,81.96
2023-01-11T09:30:31.360Z,82.80
2023-01-11T09:31:32.967Z,80.90
2023-01-11T09:32:34.426Z,82.57
2023-01-11T09:33:36.010Z,81.70
2023-01-11T09:34:37.505Z,80.85
2023-01-11T09:35:42.223Z,81.90
2023-01-11T09:36:45.128Z,81.78
2023-01-11T09:37:51.350Z,81.49
2023-01-11T09:38:52.973Z,80.71
2023-01-11T09:39:54.684Z,81.66
2023-01-11T09:41:04.425Z,80.66
2023-01-11T09:42:26.988Z,81.49
2023-01-11T09:43:31.091Z,82.19
2023-01-11T09:44:36.024Z,82.29
2023-01-11T09:45:46.519Z,82.28
2023-01-11T09:46:56.093Z,81.10
2023-01-11T09:48:04.731Z,82.17
2023-01-11T09:49:07.663Z,81.82
2023-01-11T09:50:17.307Z,81.38
2023-01-11T09:51:20.597Z,82.47
2023-01-11T09:52:38.213Z,82.22
2023-01-11T09:53:41.904Z,82.50
2023-01-11T09:54:45.263Z,81.65
2023-01-11T09:55:52.005Z,82.81
2023-01-11T09:57:13.098Z,82.95
2023-01-11T09:58:49.763Z,82.38
2023-01-11T10:00:18.045Z,82.40
2023-01-11T10:01:38.769Z,83.09
2023-01-11T10:03:01.304Z,83.31
2023-01-11T10:04:36.676Z,83.27
2023-01-11T10:05:46.448Z,83.05
2023-01-11T10:06:58.545Z,83.91
2023-01-11T10:18:31.922Z,86.51
2023-01-11T10:18:40.174Z,88.91
2023-01-11T10:18:52.968Z,89.08
2023-01-11T10:19:57.462Z,88.80
2023-01-11T10:21:33.201Z,89.97
2023-01-11T10:22:43.638Z,89.75
2023-01-11T10:24:05.019Z,90.21
2023-01-11T10:25:14.617Z,89.60
2023-01-11T10:26:28.618Z,90.88
2023-01-11T10:27:36.336Z,92.09
2023-01-11T10:28:54.407Z,91.60
2023-01-11T10:30:13.640Z,91.03
2023-01-11T10:31:44.938Z,91.62
2023-01-11T10:32:49.885Z,92.68
2023-01-11T10:34:13.172Z,92.65
2023-01-11T10:36:09.993Z,93.20
2023-01-11T10:37:27.384Z,92.88
2023-01-11T10:38:54.629Z,92.74
2023-01-11T10:40:30.975Z,93.18
2023-01-11T10:41:52.207Z,93.27
2023-01-11T10:43:03.267Z,93.59
2023-01-11T10:44:18.939Z,92.73
2023-01-11T10:45:33.078Z,93.46
2023-01-11T10:46:40.442Z,94.05
2023-01-11T10:48:01.300Z,93.81
2023-01-11T10:49:21.251Z,93.96
2023-01-11T10:50:53.979Z,93.81
2023-01-11T10:52:04.641Z,93.61
2023-01-11T10:53:29.350Z,94.79
2023-01-11T10:54:35.020Z,94.83
2023-01-11T10:55:51.042Z,93.71
2023-01-11T10:57:13.285Z,94.12
2023-01-11T10:58:30.148Z,94.52
2023-01-11T10:59:39.477Z,93.91
2023-01-11T11:01:24.377Z,94.73
2023-01-11T11:02:49.067Z,94.23
2023-01-11T11:03:57.013Z,95.26
2023-01-11T11:05:19.444Z,95.54
2023-01-11T11:06:54.435Z,94.84
2023-01-11T11:08:27.008Z,95.59
2023-01-11T11:09:59.447Z,95.82
2023-01-11T11:11:21.171Z,95.90
2023-01-11T11:12:29.983Z,95.78
2023-01-11T11:13:36.907Z,95.85
2023-01-11T11:14:44.901Z,96.25
2023-01-11T11:15:56.060Z,95.91
2023-01-11T11:17:13.143Z,95.99
2023-01-11T11:18:14.554Z,96.12
2023-01-11T11:19:20.975Z,96.06
2023-01-11T11:20:31.216Z,96.43
2023-01-11T11:21:37.212Z,96.29
2023-01-11T11:22:38.658Z,96.28
2023-01-11T11:23:40.151Z,95.71
2023-01-11T11:24:47.056Z,96.47
2023-01-11T11:25:55.092Z,96.63
2023-01-11T11:26:59.205Z,96.32
2023-01-11T11:28:06.680Z,96.35
2023-01-11T11:29:10.360Z,96.66
2023-01-11T11:30:14.436Z,96.86
2023-01-11T11:31:15.971Z,96.37
2023-01-11T11:32:36.432Z,96.74
2023-01-11T11:33:40.203Z,96.96
2023-01-11T11:34:49.991Z,96.79
2023-01-11T11:36:04.516Z,96.89
2023-01-11T11:37:05.979Z,96.54
2023-01-11T11:38:22.533Z,96.36
2023-01-11T11:39:30.156Z,97.10
2023-01-11T11:40:37.697Z,96.73
2023-01-11T11:41:48.719Z,96.73
2023-01-11T11:43:08.246Z,96.57
2023-01-11T11:44:19.498Z,96.67
2023-01-11T11:45:23.699Z,96.88
2023-01-11T11:46:28.145Z,96.86
2023-01-11T11:47:29.611Z,96.88
2023-01-11T11:48:33.832Z,96.41
2023-01-11T11:49:36.835Z,96.51
2023-01-11T11:50:46.034Z,97.30
2023-01-11T11:51:48.144Z,97.06
2023-01-11T11:52:52.231Z,97.18
2023-01-11T11:53:57.802Z,96.61
2023-01-11T11:54:59.600Z,96.67
2023-01-11T11:56:27.293Z,96.72
2023-01-11T11:57:34.419Z,96.31
2023-01-11T11:58:40.874Z,96.54
2023-01-11T11:59:48.428Z,96.72
2023-01-11T12:00:52.152Z,96.43
2023-01-11T12:02:05.745Z,96.58
2023-01-11T12:03:18.949Z,95.87
2023-01-11T12:04:32.547Z,96.07
2023-01-11T12:05:34.074Z,96.52
2023-01-11T12:06:35.566Z,96.22
2023-01-11T12:07:53.929Z,96.07
2023-01-11T12:09:00.694Z,96.96
2023-01-11T12:10:20.550Z,96.50
2023-01-11T12:11:34.994Z,96.64
2023-01-11T12:12:51.092Z,96.26
2023-01-11T12:14:22.535Z,96.87
2023-01-11T12:15:30.032Z,96.99
2023-01-11T12:16:36.919Z,96.62
2023-01-11T12:17:38.464Z,96.97
2023-01-11T12:18:42.799Z,96.77
2023-01-11T12:19:45.779Z,96.73
2023-01-11T12:20:47.265Z,97.07
2023-01-11T12:21:50.703Z,96.24
2023-01-11T12:23:15.252Z,96.64
2023-01-11T12:24:19.413Z,96.61
2023-01-11T12:25:24.192Z,97.09
2023-01-11T12:26:36.789Z,96.69
2023-01-11T12:27:44.720Z,96.71
2023-01-11T12:28:53.537Z,97.24
2023-01-11T12:30:26.948Z,97.06
2023-01-11T12:31:36.043Z,97.52
2023-01-11T12:33:11.288Z,96.51
2023-01-11T12:34:36.308Z,97.13
2023-01-11T12:36:03.103Z,96.65
2023-01-11T12:37:25.600Z,96.79
2023-01-11T12:38:37.554Z,96.88
2023-01-11T12:39:38.968Z,97.28
2023-01-11T12:41:05.685Z,97.25
2023-01-11T12:42:33.354Z,97.05
2023-01-11T12:43:50.053Z,96.88
2023-01-11T12:45:10.906Z,97.09
2023-01-11T12:46:33.626Z,97.13
2023-01-11T12:48:02.462Z,97.08
2023-01-11T12:49:25.429Z,97.46
2023-01-11T12:50:33.362Z,97.28
2023-01-11T12:51:46.489Z,97.26
2023-01-11T12:53:09.433Z,97.83
2023-01-11T12:54:26.111Z,97.65
2023-01-11T12:55:56.883Z,97.15
2023-01-11T12:57:21.367Z,96.79
2023-01-11T12:58:38.557Z,96.82
2023-01-11T12:59:55.245Z,96.65
2023-01-11T13:01:15.166Z,96.88
2023-01-11T13:02:52.827Z,97.61
2023-01-11T13:04:20.196Z,97.75
2023-01-11T13:05:31.739Z,97.45
2023-01-11T13:06:59.033Z,97.49
2023-01-11T13:08:03.624Z,97.60
2023-01-11T13:09:27.936Z,97.48
2023-01-11T13:11:03.021Z,97.43
2023-01-11T13:12:17.240Z,97.77
2023-01-11T13:13:51.076Z,98.12
2023-01-11T13:15:01.956Z,98.01
2023-01-11T13:16:17.821Z,98.10
2023-01-11T13:17:28.376Z,97.39
2023-01-11T13:18:43.318Z,98.08
2023-01-11T13:19:59.271Z,97.57
2023-01-11T13:21:40.921Z,97.91
2023-01-11T13:22:48.460Z,97.94
2023-01-11T13:23:54.777Z,97.47
2023-01-11T13:24:58.364Z,97.68
2023-01-11T13:26:12.882Z,98.52
2023-01-11T13:27:20.686Z,98.55
2023-01-11T13:28:37.594Z,97.96
2023-01-11T13:29:52.132Z,98.55
2023-01-11T13:30:53.667Z,98.52
2023-01-11T13:31:59.265Z,98.50
2023-01-11T13:33:10.942Z,98.29
2023-01-11T13:34:18.989Z,98.36
2023-01-11T13:35:24.626Z,98.16
2023-01-11T13:36:33.285Z,98.38
2023-01-11T13:37:43.007Z,98.24
2023-01-11T13:38:53.456Z,98.40
2023-01-11T13:40:10.185Z,98.63
2023-01-11T13:41:21.900Z,98.72
2023-01-11T13:42:29.600Z,98.58
2023-01-11T13:43:38.883Z,98.77
2023-01-11T13:44:47.790Z,98.97
2023-01-11T13:45:59.029Z,98.46
2023-01-11T13:47:17.027Z,98.70
2023-01-11T13:48:27.347Z,98.93
2023-01-11T13:49:37.873Z,98.83
2023-01-11T13:50:51.319Z,99.07
2023-01-11T13:52:02.247Z,99.10
2023-01-11T13:53:28.661Z,98.55
2023-01-11T13:54:56.281Z,99.05
2023-01-11T13:56:18.625Z,98.61
2023-01-11T13:57:27.561Z,99.02
2023-01-11T13:58:50.299Z,98.58
2023-01-11T14:00:00.779Z,98.48
2023-01-11T14:01:07.430Z,98.80
2023-01-11T14:02:23.211Z,98.53
2023-01-11T14:03:39.259Z,98.56
2023-01-11T14:05:03.336Z,98.68
2023-01-11T14:06:44.289Z,98.93
2023-01-11T14:08:01.019Z,98.45
2023-01-11T14:09:21.112Z,99.12
2023-01-11T14:10:31.144Z,98.91
2023-01-11T14:11:58.524Z,98.56
2023-01-11T14:13:46.679Z,98.33
2023-01-11T14:14:50.826Z,99.10
2023-01-11T14:16:01.099Z,98.39
2023-01-11T14:17:40.027Z,98.84
2023-01-11T14:19:05.096Z,98.66
2023-01-11T14:20:16.371Z,99.07
2023-01-11T14:21:31.861Z,98.83
2023-01-11T14:22:43.926Z,98.93
2023-01-11T14:23:54.027Z,98.88
2023-01-11T14:25:08.257Z,98.87
2023-01-11T14:26:15.772Z,99.14
2023-01-11T14:27:43.382Z,98.77
2023-01-11T14:28:47.851Z,98.89
2023-01-11T14:29:59.375Z,98.70
2023-01-11T14:31:16.364Z,98.84
2023-01-11T14:33:13.284Z,99.10
2023-01-11T14:34:52.147Z,99.25
2023-01-11T14:36:05.545Z,98.88
2023-01-11T14:37:23.469Z,99.16
2023-01-11T14:38:48.062Z,98.35
2023-01-11T14:39:56.967Z,98.40
2023-01-11T14:41:26.658Z,98.97
2023-01-11T14:42:49.756Z,98.92
2023-01-11T14:44:09.705Z,99.05